createdAt,value
2023-02-23T00:00:28.685Z,8.50
2023-02-23T00:02:59.143Z,8.40
2023-02-23T00:05:27.428Z,8.40
2023-02-23T00:07:54.968Z,8.40
2023-02-23T00:10:30.147Z,8.30
2023-02-23T00:13:00.123Z,8.40
2023-02-23T00:15:27.787Z,8.30
2023-02-23T00:17:55.888Z,8.30
2023-02-23T00:20:30.065Z,8.20
2023-02-23T00:22:58.437Z,8.30
2023-02-23T00:25:25.482Z,8.20
2023-02-23T00:27:52.798Z,8.20
2023-02-23T00:30:21.192Z,8.20
2023-02-23T00:32:49.913Z,8.20
2023-02-23T00:35:17.538Z,8.20
2023-02-23T00:37:45.917Z,8.20
2023-02-23T00:40:16.237Z,8.20
2023-02-23T00:42:45.440Z,8.20
2023-02-23T00:45:13.351Z,8.10
2023-02-23T00:47:44.043Z,8.10
2023-02-23T00:50:13.028Z,8.10
2023-02-23T00:52:41.353Z,8.10
2023-02-23T00:55:10.131Z,8.10
2023-02-23T00:57:37.451Z,8.10
2023-02-23T01:00:25.477Z,8.10
2023-02-23T01:02:53.646Z,8.00
2023-02-23T01:05:22.114Z,8.00
2023-02-23T01:07:49.220Z,8.00
2023-02-23T01:10:19.346Z,7.90
2023-02-23T01:12:48.596Z,7.90
2023-02-23T01:15:15.930Z,7.90
2023-02-23T01:17:43.465Z,7.80
2023-02-23T01:20:19.918Z,7.80
2023-02-23T01:22:49.663Z,7.80
2023-02-23T01:25:17.694Z,7.80
2023-02-23T01:27:45.546Z,7.90
2023-02-23T01:30:14.903Z,7.90
2023-02-23T01:32:42.331Z,7.80
2023-02-23T01:35:10.938Z,7.80
2023-02-23T01:37:41.477Z,7.80
2023-02-23T01:40:15.107Z,7.80
2023-02-23T01:42:44.575Z,7.80
2023-02-23T01:45:35.813Z,7.70
2023-02-23T01:48:06.977Z,7.70
2023-02-23T01:50:43.215Z,7.70
2023-02-23T01:53:11.910Z,7.70
2023-02-23T01:55:39.584Z,7.70
2023-02-23T01:58:15.521Z,7.70
2023-02-23T02:00:50.051Z,7.70
2023-02-23T02:03:26.782Z,7.70
2023-02-23T02:05:56.792Z,7.60
2023-02-23T02:08:26.964Z,7.70
2023-02-23T02:10:56.107Z,7.70
2023-02-23T02:13:29.654Z,7.70
2023-02-23T02:16:20.402Z,7.70
2023-02-23T02:18:58.417Z,7.60
2023-02-23T02:22:05.263Z,7.60
2023-02-23T02:25:01.376Z,7.60
2023-02-23T02:27:57.690Z,7.60
2023-02-23T02:30:48.184Z,7.60
2023-02-23T02:34:08.830Z,7.60
2023-02-23T02:36:55.762Z,7.50
2023-02-23T02:39:36.385Z,7.50
2023-02-23T02:42:16.369Z,7.50
2023-02-23T02:44:52.072Z,7.50
2023-02-23T02:47:29.034Z,7.50
2023-02-23T02:50:04.206Z,7.40
2023-02-23T02:52:37.520Z,7.40
2023-02-23T02:55:12.164Z,7.40
2023-02-23T02:57:41.205Z,7.40
2023-02-23T03:00:30.246Z,7.40
2023-02-23T03:03:15.932Z,7.40
2023-02-23T03:06:07.364Z,7.40
2023-02-23T03:08:59.669Z,7.40
2023-02-23T03:11:54.106Z,7.40
2023-02-23T03:14:52.463Z,7.40
2023-02-23T03:17:48.427Z,7.40
2023-02-23T03:20:41.782Z,7.40
2023-02-23T03:23:38.013Z,7.40
2023-02-23T03:26:29.772Z,7.50
2023-02-23T03:29:22.873Z,7.50
2023-02-23T03:32:15.176Z,7.50
2023-02-23T03:35:05.027Z,7.50
2023-02-23T03:37:56.741Z,7.50
2023-02-23T03:40:46.067Z,7.50
2023-02-23T03:43:37.234Z,7.50
2023-02-23T03:46:26.407Z,7.50
2023-02-23T03:49:14.860Z,7.50
2023-02-23T03:52:03.784Z,7.50
2023-02-23T03:54:54.720Z,7.50
2023-02-23T03:57:44.528Z,7.60
2023-02-23T04:00:38.888Z,7.50
2023-02-23T04:03:28.562Z,7.50
2023-02-23T04:06:16.260Z,7.40
2023-02-23T04:09:02.688Z,7.50
2023-02-23T04:11:58.587Z,7.40
2023-02-23T04:14:31.238Z,7.40
2023-02-23T04:17:00.126Z,7.50
2023-02-23T04:19:29.111Z,7.50
2023-02-23T04:21:55.960Z,7.60
2023-02-23T04:24:23.458Z,7.70
2023-02-23T04:26:50.599Z,7.70
2023-02-23T04:29:17.754Z,7.70
2023-02-23T04:31:44.970Z,7.70
2023-02-23T04:34:14.298Z,7.70
2023-02-23T04:36:41.166Z,7.70
2023-02-23T04:39:08.237Z,7.70
2023-02-23T04:41:35.111Z,7.70
2023-02-23T04:44:02.425Z,7.70
2023-02-23T04:46:30.377Z,7.70
2023-02-23T04:48:57.548Z,7.70
2023-02-23T04:51:30.719Z,7.70
2023-02-23T04:53:58.066Z,7.60
2023-02-23T04:56:24.977Z,7.60
2023-02-23T04:58:51.926Z,7.60
2023-02-23T05:01:19.468Z,7.50
2023-02-23T05:03:46.521Z,7.50
2023-02-23T05:06:13.852Z,7.50
2023-02-23T05:08:42.308Z,7.50
2023-02-23T05:11:09.266Z,7.50
2023-02-23T05:13:36.405Z,7.40
2023-02-23T05:16:03.290Z,7.40
2023-02-23T05:18:30.476Z,7.50
2023-02-23T05:21:03.354Z,7.50
2023-02-23T05:23:30.386Z,7.60
2023-02-23T05:26:03.854Z,7.50
2023-02-23T05:28:31.279Z,7.50
2023-02-23T05:30:58.504Z,7.50
2023-02-23T05:33:25.506Z,7.50
2023-02-23T05:35:52.380Z,7.50
2023-02-23T05:38:19.984Z,7.50
2023-02-23T05:40:48.215Z,7.50
2023-02-23T05:43:16.653Z,7.40
2023-02-23T05:45:44.571Z,7.40
2023-02-23T05:48:12.191Z,7.40
2023-02-23T05:50:39.178Z,7.40
2023-02-23T05:53:06.509Z,7.40
2023-02-23T05:55:33.298Z,7.40
2023-02-23T05:58:00.434Z,7.40
2023-02-23T06:00:28.636Z,7.30
2023-02-23T06:02:55.836Z,7.30
2023-02-23T06:05:22.799Z,7.30
2023-02-23T06:07:49.906Z,7.30
2023-02-23T06:10:17.401Z,7.20
2023-02-23T06:12:44.242Z,7.20
2023-02-23T06:15:11.615Z,7.20
2023-02-23T06:17:40.080Z,7.20
2023-02-23T06:20:07.813Z,7.20
2023-02-23T06:22:35.033Z,7.20
2023-02-23T06:25:04.896Z,7.20
2023-02-23T06:27:32.183Z,7.20
2023-02-23T06:29:59.158Z,7.20
2023-02-23T06:32:27.421Z,7.20
2023-02-23T06:34:55.563Z,7.20
2023-02-23T06:37:22.678Z,7.20
2023-02-23T06:39:50.413Z,7.30
2023-02-23T06:42:17.795Z,7.30
2023-02-23T06:44:44.608Z,7.40
2023-02-23T06:47:11.514Z,7.40
2023-02-23T06:49:40.423Z,7.50
2023-02-23T06:52:09.372Z,7.50
2023-02-23T06:54:38.030Z,7.60
2023-02-23T06:57:05.123Z,7.60
2023-02-23T06:59:32.355Z,7.80
2023-02-23T07:01:59.591Z,7.80
2023-02-23T07:04:26.535Z,7.80
2023-02-23T07:06:54.530Z,7.90
2023-02-23T07:09:22.666Z,7.90
2023-02-23T07:11:49.873Z,8.00
2023-02-23T07:14:26.185Z,8.10
2023-02-23T07:16:54.290Z,8.10
2023-02-23T07:19:21.157Z,8.20
2023-02-23T07:21:48.013Z,8.20
2023-02-23T07:24:14.914Z,8.20
2023-02-23T07:26:47.215Z,8.30
2023-02-23T07:29:14.106Z,8.20
2023-02-23T07:31:41.473Z,8.20
2023-02-23T07:34:09.301Z,8.10
2023-02-23T07:36:36.812Z,8.10
2023-02-23T07:39:04.786Z,8.20
2023-02-23T07:41:31.975Z,8.20
2023-02-23T07:44:00.164Z,8.30
2023-02-23T07:46:27.062Z,8.30
2023-02-23T07:48:54.421Z,8.30
2023-02-23T07:51:21.624Z,8.30
2023-02-23T07:53:49.393Z,8.30
2023-02-23T07:56:16.338Z,8.30
2023-02-23T07:58:44.563Z,8.30
2023-02-23T08:01:13.701Z,8.30
2023-02-23T08:03:40.567Z,8.30
2023-02-23T08:06:08.030Z,8.40
2023-02-23T08:08:35.362Z,8.40
2023-02-23T08:11:03.963Z,8.50
2023-02-23T08:13:31.866Z,8.50
2023-02-23T08:15:59.258Z,8.60
2023-02-23T08:18:27.852Z,8.60
2023-02-23T08:20:59.140Z,8.60
2023-02-23T08:23:26.150Z,8.70
2023-02-23T08:25:54.712Z,8.60
2023-02-23T08:28:22.525Z,8.70
2023-02-23T08:30:49.853Z,8.80
2023-02-23T08:33:16.830Z,8.80
2023-02-23T08:35:45.571Z,8.80
2023-02-23T08:38:12.469Z,8.80
2023-02-23T08:40:39.369Z,8.80
2023-02-23T08:43:06.126Z,8.90
2023-02-23T08:45:33.264Z,8.90
2023-02-23T08:48:00.059Z,9.00
2023-02-23T08:50:27.648Z,9.10
2023-02-23T08:52:55.873Z,9.10
2023-02-23T08:55:24.282Z,9.10
2023-02-23T08:57:51.085Z,9.20
2023-02-23T09:00:19.093Z,9.20
2023-02-23T09:02:49.636Z,9.30
2023-02-23T09:05:17.019Z,9.30
2023-02-23T09:07:45.095Z,9.30
2023-02-23T09:10:15.280Z,9.40
2023-02-23T09:12:42.178Z,9.40
2023-02-23T09:15:10.119Z,9.40
2023-02-23T09:17:37.304Z,9.40
2023-02-23T09:20:05.502Z,9.40
2023-02-23T09:22:32.664Z,9.40
2023-02-23T09:24:59.906Z,9.40
2023-02-23T09:27:28.015Z,9.40
2023-02-23T09:29:55.144Z,9.30
2023-02-23T09:32:22.027Z,9.40
2023-02-23T09:34:50.232Z,9.40
2023-02-23T09:37:17.025Z,9.40
2023-02-23T09:39:45.920Z,9.40
2023-02-23T09:42:23.667Z,9.40
2023-02-23T09:45:04.220Z,9.40
2023-02-23T09:47:40.443Z,9.40
2023-02-23T09:50:16.073Z,9.40
2023-02-23T09:52:48.820Z,9.40
2023-02-23T09:55:16.552Z,9.40
2023-02-23T09:57:46.621Z,9.40
2023-02-23T10:00:19.307Z,9.40
2023-02-23T10:03:01.115Z,9.40
2023-02-23T10:05:32.139Z,9.50
2023-02-23T10:08:07.357Z,9.40
2023-02-23T10:10:41.291Z,9.50
2023-02-23T10:13:16.274Z,9.50
2023-02-23T10:15:50.972Z,9.40
2023-02-23T10:18:44.988Z,9.40
2023-02-23T10:21:18.946Z,9.30
2023-02-23T10:23:50.830Z,9.30
2023-02-23T10:26:21.744Z,9.40
2023-02-23T10:28:48.825Z,9.40
2023-02-23T10:31:27.979Z,9.40
2023-02-23T10:33:57.784Z,9.40
2023-02-23T10:36:35.333Z,9.40
2023-02-23T10:39:05.220Z,9.40
2023-02-23T10:41:32.485Z,9.40
2023-02-23T10:44:07.878Z,9.40
2023-02-23T10:46:46.495Z,9.30
2023-02-23T10:49:22.456Z,9.40
2023-02-23T10:51:52.298Z,9.30
2023-02-23T10:54:44.429Z,9.40
2023-02-23T10:57:18.923Z,9.40
2023-02-23T11:00:17.025Z,9.40
2023-02-23T11:02:46.246Z,9.40
2023-02-23T11:05:43.665Z,9.40
2023-02-23T11:08:30.422Z,9.30
2023-02-23T11:11:04.706Z,9.30
2023-02-23T11:13:39.771Z,9.30
2023-02-23T11:16:11.541Z,9.30
2023-02-23T11:18:41.618Z,9.30
2023-02-23T11:21:13.535Z,9.30
2023-02-23T11:23:41.605Z,9.40
2023-02-23T11:26:29.008Z,9.40
2023-02-23T11:28:58.088Z,9.30
2023-02-23T11:31:32.527Z,9.40
2023-02-23T11:34:02.287Z,9.30
2023-02-23T11:36:31.599Z,9.40
2023-02-23T11:39:07.857Z,9.40
2023-02-23T11:41:37.548Z,9.40
2023-02-23T11:44:06.411Z,9.30
2023-02-23T11:46:37.651Z,9.30
2023-02-23T11:49:08.466Z,9.40
2023-02-23T11:51:38.594Z,9.40
2023-02-23T11:54:10.264Z,9.30
2023-02-23T11:56:37.579Z,9.20
2023-02-23T11:59:10.135Z,9.20
2023-02-23T12:01:44.885Z,9.20
2023-02-23T12:04:26.024Z,9.20
2023-02-23T12:06:55.687Z,9.20
2023-02-23T12:09:26.766Z,9.20
2023-02-23T12:12:03.227Z,9.30
2023-02-23T12:14:33.651Z,9.20
2023-02-23T12:17:05.352Z,9.30
2023-02-23T12:19:38.007Z,9.40
2023-02-23T12:22:12.396Z,9.30
2023-02-23T12:24:44.848Z,9.30
2023-02-23T12:27:16.686Z,9.40
2023-02-23T12:30:03.438Z,9.40
2023-02-23T12:32:42.318Z,9.40
2023-02-23T12:35:16.538Z,9.50
2023-02-23T12:37:47.968Z,9.60
2023-02-23T12:40:17.413Z,9.60
2023-02-23T12:42:52.969Z,9.70
2023-02-23T12:45:28.922Z,9.80
2023-02-23T12:48:04.764Z,9.90
2023-02-23T12:50:37.598Z,10.00
2023-02-23T12:53:13.240Z,10.00
2023-02-23T12:55:50.744Z,10.10
2023-02-23T12:58:23.927Z,10.10
2023-02-23T13:00:58.205Z,10.10
2023-02-23T13:03:56.550Z,10.00
2023-02-23T13:06:35.332Z,10.00
2023-02-23T13:09:22.138Z,10.00
2023-02-23T13:12:07.714Z,9.90
2023-02-23T13:14:43.213Z,9.80
2023-02-23T13:17:25.696Z,9.70
2023-02-23T13:19:56.229Z,9.60
2023-02-23T13:22:33.617Z,9.60
2023-02-23T13:25:05.329Z,9.60
2023-02-23T13:27:36.872Z,9.60
2023-02-23T13:30:04.942Z,9.60
2023-02-23T13:32:33.746Z,9.60
2023-02-23T13:35:02.970Z,9.70
2023-02-23T13:37:35.319Z,9.80
2023-02-23T13:40:18.650Z,9.80
2023-02-23T13:42:56.625Z,9.80
2023-02-23T13:45:40.879Z,9.90
2023-02-23T13:48:19.188Z,9.90
2023-02-23T13:50:55.113Z,10.00
2023-02-23T13:53:39.612Z,10.00
2023-02-23T13:56:09.487Z,10.00
2023-02-23T13:58:37.283Z,10.00
2023-02-23T14:01:08.958Z,9.90
2023-02-23T14:03:42.144Z,9.90
2023-02-23T14:06:18.108Z,9.90
2023-02-23T14:08:52.389Z,9.80
2023-02-23T14:11:36.013Z,9.60
2023-02-23T14:14:04.114Z,9.60
2023-02-23T14:16:32.210Z,9.50
2023-02-23T14:19:10.445Z,9.50
2023-02-23T14:21:43.951Z,9.40
2023-02-23T14:24:19.407Z,9.40
2023-02-23T14:27:39.863Z,9.40
2023-02-23T14:30:19.949Z,9.40
2023-02-23T14:32:49.053Z,9.30
2023-02-23T14:35:44.717Z,9.20
2023-02-23T14:38:45.634Z,9.30
2023-02-23T14:41:21.901Z,9.20
2023-02-23T14:43:53.396Z,9.20
2023-02-23T14:46:23.762Z,9.20
2023-02-23T14:48:59.739Z,9.30
2023-02-23T14:51:36.682Z,9.30
2023-02-23T14:54:11.364Z,9.30
2023-02-23T14:56:47.169Z,9.20
2023-02-23T14:59:20.905Z,9.20
2023-02-23T15:01:49.325Z,9.20
2023-02-23T15:04:20.369Z,9.30
2023-02-23T15:06:47.744Z,9.20
2023-02-23T15:09:19.983Z,9.20
2023-02-23T15:11:53.968Z,9.20
2023-02-23T15:14:28.007Z,9.10
2023-02-23T15:16:56.633Z,9.10
2023-02-23T15:19:32.922Z,9.00
2023-02-23T15:22:01.885Z,9.10
2023-02-23T15:24:33.094Z,9.00
2023-02-23T15:27:01.340Z,8.90
2023-02-23T15:29:32.999Z,8.90
2023-02-23T15:32:15.004Z,8.90
2023-02-23T15:34:42.470Z,8.80
2023-02-23T15:37:20.024Z,8.80
2023-02-23T15:39:53.540Z,8.80
2023-02-23T15:42:25.393Z,8.80
2023-02-23T15:44:59.723Z,8.80
2023-02-23T15:47:32.487Z,8.70
2023-02-23T15:50:20.085Z,8.70
2023-02-23T15:53:00.160Z,8.70
2023-02-23T15:55:31.565Z,8.70
2023-02-23T15:58:02.177Z,8.70
2023-02-23T16:00:34.620Z,8.70
2023-02-23T16:03:03.277Z,8.70
2023-02-23T16:05:41.879Z,8.60
2023-02-23T16:08:22.895Z,8.70
2023-02-23T16:10:55.426Z,8.80
2023-02-23T16:13:24.116Z,8.70
2023-02-23T16:15:55.199Z,8.70
2023-02-23T16:18:33.042Z,8.70
2023-02-23T16:21:00.663Z,8.70
2023-02-23T16:23:34.429Z,8.70
2023-02-23T16:26:06.721Z,8.60
2023-02-23T16:28:36.562Z,8.60
2023-02-23T16:31:07.209Z,8.60
2023-02-23T16:33:43.492Z,8.60
2023-02-23T16:36:16.721Z,8.50
2023-02-23T16:38:57.780Z,8.60
2023-02-23T16:41:30.257Z,8.60
2023-02-23T16:44:01.815Z,8.60
2023-02-23T16:46:31.985Z,8.60
2023-02-23T16:49:05.149Z,8.60
2023-02-23T16:51:34.625Z,8.80
2023-02-23T16:54:04.457Z,9.00
2023-02-23T16:56:32.283Z,9.00
2023-02-23T16:59:03.216Z,9.00
2023-02-23T17:01:30.481Z,9.10
2023-02-23T17:03:58.995Z,9.00
2023-02-23T17:06:26.504Z,9.00
2023-02-23T17:08:58.033Z,9.00
2023-02-23T17:11:25.704Z,8.90
2023-02-23T17:13:52.470Z,8.90
2023-02-23T17:16:21.268Z,8.90
2023-02-23T17:18:48.832Z,8.80
2023-02-23T17:21:23.261Z,8.80
2023-02-23T17:23:51.382Z,8.70
2023-02-23T17:26:20.751Z,8.60
2023-02-23T17:28:48.264Z,8.60
2023-02-23T17:31:16.870Z,8.60
2023-02-23T17:33:46.253Z,8.50
2023-02-23T17:36:15.069Z,8.50
2023-02-23T17:38:44.157Z,8.40
2023-02-23T17:41:14.362Z,8.40
2023-02-23T17:43:41.679Z,8.40
2023-02-23T17:46:09.453Z,8.40
2023-02-23T17:48:36.471Z,8.40
2023-02-23T17:51:08.568Z,8.40
2023-02-23T17:53:36.128Z,8.40
2023-02-23T17:56:03.328Z,8.30
2023-02-23T17:58:30.566Z,8.40
2023-02-23T18:00:59.306Z,8.30
2023-02-23T18:03:31.900Z,8.30
2023-02-23T18:06:00.865Z,8.20
2023-02-23T18:08:29.208Z,8.20
2023-02-23T18:10:57.238Z,8.20
2023-02-23T18:13:25.262Z,8.20
2023-02-23T18:15:53.869Z,8.10
2023-02-23T18:18:21.509Z,8.10
2023-02-23T18:20:50.490Z,8.00
2023-02-23T18:23:17.892Z,8.00
2023-02-23T18:25:47.817Z,8.00
2023-02-23T18:28:15.535Z,7.80
2023-02-23T18:30:43.556Z,7.80
2023-02-23T18:33:11.117Z,7.80
2023-02-23T18:35:40.438Z,7.80
2023-02-23T18:38:10.495Z,7.70
2023-02-23T18:40:39.369Z,7.70
2023-02-23T18:43:08.261Z,7.60
2023-02-23T18:45:35.569Z,7.60
2023-02-23T18:48:02.464Z,7.60
2023-02-23T18:50:29.876Z,7.50
2023-02-23T18:52:58.900Z,7.40
2023-02-23T18:55:26.046Z,7.40
2023-02-23T18:57:52.976Z,7.40
2023-02-23T19:00:22.308Z,7.40
2023-02-23T19:02:49.432Z,7.30
2023-02-23T19:05:19.603Z,7.30
2023-02-23T19:07:47.681Z,7.40
2023-02-23T19:10:15.451Z,7.40
2023-02-23T19:12:42.610Z,7.50
2023-02-23T19:15:10.495Z,7.50
2023-02-23T19:17:38.864Z,7.40
2023-02-23T19:20:13.331Z,7.40
2023-02-23T19:22:41.326Z,7.40
2023-02-23T19:25:11.695Z,7.40
2023-02-23T19:27:38.739Z,7.30
2023-02-23T19:30:10.097Z,7.40
2023-02-23T19:32:40.026Z,7.30
2023-02-23T19:35:10.283Z,7.30
2023-02-23T19:37:39.625Z,7.30
2023-02-23T19:40:07.751Z,7.30
2023-02-23T19:42:36.755Z,7.40
2023-02-23T19:45:04.174Z,7.30
2023-02-23T19:47:31.083Z,7.40
2023-02-23T19:49:59.530Z,7.30
2023-02-23T19:52:28.750Z,7.30
2023-02-23T19:54:55.578Z,7.30
2023-02-23T19:57:22.666Z,7.40
2023-02-23T19:59:49.499Z,7.40
2023-02-23T20:02:16.356Z,7.40
2023-02-23T20:04:43.531Z,7.40
2023-02-23T20:07:11.763Z,7.30
2023-02-23T20:09:39.004Z,7.30
2023-02-23T20:12:06.609Z,7.30
2023-02-23T20:14:33.558Z,7.40
2023-02-23T20:17:01.098Z,7.30
2023-02-23T20:19:28.773Z,7.40
2023-02-23T20:21:55.641Z,7.40
2023-02-23T20:24:23.979Z,7.30
2023-02-23T20:26:52.388Z,7.30
2023-02-23T20:29:19.349Z,7.40
2023-02-23T20:31:50.423Z,7.30
2023-02-23T20:34:20.406Z,7.30
2023-02-23T20:36:48.315Z,7.40
2023-02-23T20:39:16.869Z,7.30
2023-02-23T20:41:48.120Z,7.30
2023-02-23T20:44:16.113Z,7.20
2023-02-23T20:46:44.550Z,7.20
2023-02-23T20:49:16.985Z,7.30
2023-02-23T20:51:48.614Z,7.30
2023-02-23T20:54:17.178Z,7.30
2023-02-23T20:56:45.778Z,7.20
2023-02-23T20:59:13.326Z,7.30
2023-02-23T21:01:41.709Z,7.20
2023-02-23T21:04:09.190Z,7.20
2023-02-23T21:06:36.553Z,7.10
2023-02-23T21:09:12.592Z,6.90
2023-02-23T21:11:39.822Z,6.90
2023-02-23T21:14:08.452Z,6.80
2023-02-23T21:16:36.152Z,6.70
2023-02-23T21:19:06.016Z,6.70
2023-02-23T21:21:38.462Z,6.70
2023-02-23T21:24:05.867Z,6.80
2023-02-23T21:26:33.309Z,6.70
2023-02-23T21:29:00.519Z,6.70
2023-02-23T21:31:29.028Z,6.60
2023-02-23T21:33:56.548Z,6.50
2023-02-23T21:36:23.529Z,6.40
2023-02-23T21:38:51.645Z,6.40
2023-02-23T21:41:18.998Z,6.30
2023-02-23T21:43:46.929Z,6.40
2023-02-23T21:46:16.131Z,6.30
2023-02-23T21:48:44.466Z,6.30
2023-02-23T21:51:14.008Z,6.20
2023-02-23T21:53:41.329Z,6.20
2023-02-23T21:56:13.382Z,6.10
2023-02-23T21:58:43.686Z,6.10
2023-02-23T22:01:12.515Z,6.00
2023-02-23T22:03:40.621Z,6.00
2023-02-23T22:06:09.629Z,5.90
2023-02-23T22:08:36.467Z,5.90
2023-02-23T22:11:07.551Z,6.00
2023-02-23T22:13:34.429Z,5.90
2023-02-23T22:16:01.663Z,5.90
2023-02-23T22:18:28.971Z,5.90
2023-02-23T22:20:57.452Z,5.90
2023-02-23T22:23:27.657Z,5.90
2023-02-23T22:25:55.240Z,5.80
2023-02-23T22:28:22.117Z,5.80
2023-02-23T22:30:50.988Z,5.70
2023-02-23T22:33:19.302Z,5.60
2023-02-23T22:35:46.731Z,5.60
2023-02-23T22:38:14.045Z,5.60
2023-02-23T22:40:42.794Z,5.70
2023-02-23T22:43:10.306Z,5.70
2023-02-23T22:45:38.250Z,5.60
2023-02-23T22:48:06.778Z,5.60
2023-02-23T22:50:34.575Z,5.50
2023-02-23T22:53:01.473Z,5.40
2023-02-23T22:55:29.291Z,5.50
2023-02-23T22:57:59.725Z,5.40
2023-02-23T23:00:29.174Z,5.30
2023-02-23T23:02:56.048Z,5.40
2023-02-23T23:05:23.392Z,5.40
2023-02-23T23:07:50.283Z,5.30
2023-02-23T23:10:18.356Z,5.50
2023-02-23T23:12:45.276Z,5.50
2023-02-23T23:15:19.169Z,5.40
2023-02-23T23:17:48.421Z,5.40
2023-02-23T23:20:18.155Z,5.30
2023-02-23T23:22:45.531Z,5.30
2023-02-23T23:25:15.488Z,5.20
2023-02-23T23:27:42.935Z,5.20
2023-02-23T23:30:11.748Z,5.20
2023-02-23T23:32:40.975Z,5.20
2023-02-23T23:35:11.336Z,5.10
2023-02-23T23:37:39.839Z,5.20
2023-02-23T23:40:14.323Z,5.10
2023-02-23T23:42:46.418Z,5.10
2023-02-23T23:45:16.466Z,5.10
2023-02-23T23:47:45.446Z,5.10
2023-02-23T23:50:14.078Z,5.20
2023-02-23T23:52:45.059Z,5.20
2023-02-23T23:55:14.633Z,5.20
2023-02-23T23:57:42.171Z,5.20
